createdAt,value
2019-04-25T00:02:32.537Z,10.20
2019-04-25T00:06:46.905Z,10.10
2019-04-25T00:12:46.816Z,9.90
2019-04-25T00:18:45.354Z,9.90
2019-04-25T00:24:59.265Z,9.70
2019-04-25T00:35:04.571Z,9.70
2019-04-25T00:38:59.554Z,9.60
2019-04-25T00:45:04.886Z,9.60
2019-04-25T00:49:05.032Z,9.80
2019-04-25T00:53:15.501Z,9.70
2019-04-25T00:59:38.777Z,9.60
2019-04-25T01:04:24.300Z,9.60
2019-04-25T01:08:27.329Z,9.50
2019-04-25T01:12:34.531Z,9.50
2019-04-25T01:16:44.983Z,9.40
2019-04-25T01:20:57.520Z,9.30
2019-04-25T01:25:03.905Z,9.20
2019-04-25T01:30:08.559Z,9.20
2019-04-25T01:36:24.229Z,9.20
2019-04-25T01:41:07.556Z,9.10
2019-04-25T01:45:33.929Z,9.00
2019-04-25T01:53:26.411Z,8.90
2019-04-25T01:57:36.270Z,8.50
2019-04-25T02:01:46.033Z,8.30
2019-04-25T02:05:47.202Z,8.10
2019-04-25T02:11:05.742Z,8.10
2019-04-25T02:15:33.438Z,8.00
2019-04-25T02:19:56.774Z,7.90
2019-04-25T02:24:10.123Z,7.80
2019-04-25T02:30:11.486Z,7.70
2019-04-25T02:35:11.712Z,7.60
2019-04-25T02:43:10.179Z,7.70
2019-04-25T02:51:07.921Z,7.60
2019-04-25T02:57:24.895Z,7.30
2019-04-25T03:01:28.039Z,7.10
2019-04-25T03:07:28.656Z,7.10
2019-04-25T03:11:26.546Z,7.00
2019-04-25T03:21:35.291Z,7.00
2019-04-25T03:25:37.557Z,7.00
2019-04-25T03:30:39.095Z,7.00
2019-04-25T03:35:38.159Z,6.90
2019-04-25T03:39:36.527Z,6.60
2019-04-25T03:45:38.230Z,6.50
2019-04-25T03:49:44.539Z,6.40
2019-04-25T03:54:51.149Z,6.30
2019-04-25T03:58:49.434Z,6.40
2019-04-25T04:02:53.732Z,6.30
2019-04-25T04:07:12.295Z,6.40
2019-04-25T04:17:36.054Z,6.40
2019-04-25T04:21:56.982Z,6.40
2019-04-25T04:26:18.878Z,6.60
2019-04-25T04:32:18.652Z,6.60
2019-04-25T04:40:07.946Z,6.60
2019-04-25T04:44:05.358Z,6.70
2019-04-25T04:48:14.140Z,6.80
2019-04-25T04:56:20.591Z,6.80
2019-04-25T05:00:21.300Z,7.00
2019-04-25T05:04:37.047Z,7.10
2019-04-25T05:09:15.289Z,7.30
2019-04-25T05:13:45.314Z,7.40
2019-04-25T05:21:39.324Z,7.60
2019-04-25T05:25:39.511Z,8.00
2019-04-25T05:29:49.034Z,8.20
2019-04-25T05:33:55.701Z,8.40
2019-04-25T05:38:05.489Z,8.70
2019-04-25T05:43:08.750Z,9.00
2019-04-25T05:47:31.194Z,9.40
2019-04-25T05:53:30.014Z,9.70
2019-04-25T05:59:25.503Z,10.10
2019-04-25T06:03:24.821Z,10.50
2019-04-25T06:07:36.357Z,10.80
2019-04-25T06:11:59.522Z,11.00
2019-04-25T06:16:24.241Z,11.40
2019-04-25T06:21:35.313Z,11.60
2019-04-25T06:26:51.709Z,11.70
2019-04-25T06:31:04.428Z,12.00
2019-04-25T06:35:14.325Z,12.20
2019-04-25T06:39:24.387Z,12.50
2019-04-25T06:43:38.477Z,12.80
2019-04-25T06:48:14.446Z,13.00
2019-04-25T06:52:55.830Z,13.00
2019-04-25T06:57:15.339Z,12.90
2019-04-25T07:02:18.810Z,13.20
2019-04-25T07:06:33.842Z,13.50
2019-04-25T07:10:42.102Z,13.80
2019-04-25T07:14:47.837Z,13.70
2019-04-25T07:18:54.594Z,13.70
2019-04-25T07:23:04.946Z,13.90
2019-04-25T07:27:45.885Z,14.10
2019-04-25T07:32:51.711Z,14.30
2019-04-25T07:37:19.290Z,14.60
2019-04-25T07:41:27.175Z,14.70
2019-04-25T07:45:30.862Z,14.70
2019-04-25T07:49:43.267Z,14.90
2019-04-25T07:53:47.627Z,15.00
2019-04-25T08:36:56.765Z,18.40
2019-04-25T08:41:06.208Z,18.30
2019-04-25T08:45:09.445Z,18.30
2019-04-25T08:49:24.078Z,18.50
2019-04-25T09:32:48.990Z,21.40
2019-04-25T09:36:49.280Z,21.30
2019-04-25T09:40:52.098Z,21.60
2019-04-25T09:45:15.450Z,22.10
2019-04-25T10:28:44.050Z,22.90
2019-04-25T11:11:59.353Z,24.40
2019-04-25T11:15:59.528Z,24.20
2019-04-25T12:38:24.469Z,26.00
2019-04-25T13:21:47.261Z,25.20
2019-04-25T13:25:49.364Z,24.90
2019-04-25T13:30:14.244Z,25.50
2019-04-25T13:34:58.760Z,25.60
2019-04-25T13:39:24.129Z,24.90
2019-04-25T15:21:29.735Z,27.10
2019-04-25T15:25:31.876Z,26.60
2019-04-25T15:49:14.597Z,25.50
2019-04-25T15:53:12.671Z,25.40
2019-04-25T16:03:07.525Z,25.00
2019-04-25T16:18:59.810Z,24.90
2019-04-25T16:27:44.988Z,24.10
